Latest Coastal Weather Observations for Stenhouse Bay

IDS60701

Issued at 5:21 pm CST Sunday 5 July 2015 (issued every 10 minutes, with the page automatically refreshed every 10 minutes)

About coastal observations | Map of coastal stations | Coastal observations for SA | Marine services | Other Formats
Station Details ID: 022049 Name: STENHOUSE BAY Lat: -35.28 Lon: 136.94 Height: 42.0 m
Data from the previous 72 hours. | See also: Recent months at Stenhouse Bay
Date/Time
CST
Temp

°C
Wind Pressure Rain
since 9am
mm
Weather Cloud Vis
km
Sea
Height
m
Swell
Dir
 
Speed
knots
Gust
knots
hPa Trend Height
m
Period
s
Dir
05/05:00pm 13.8 N 9 13 1015.3 - 0.2 - - - - - - -
05/04:30pm 14.7 N 11 14 1015.4 - 0.2 - - - - - - -
05/04:00pm 15.0 N 10 15 1015.5 - 0.2 - - - - - - -
05/03:30pm 15.6 NNW 12 17 1015.4 - 0.2 - - - - - - -
05/03:00pm 16.0 NNW 12 17 1015.7 - 0.2 - - - - - - -
05/02:30pm 15.9 NNW 12 17 1015.8 - 0.2 - - - - - - -
05/02:00pm 17.0 NNW 12 17 1015.9 - 0.2 - - - - - - -
05/01:30pm 16.2 NNW 14 19 1016.2 - 0.2 - - - - - - -
05/01:00pm 16.0 NNW 15 22 1016.6 - 0.2 - - - - - - -
05/12:30pm 15.8 NNW 16 23 1016.9 - 0.2 - - - - - - -
05/12:00pm 16.4 NNW 16 21 1017.2 - 0.2 - - - - - - -
05/11:30am 16.6 NNW 15 22 1017.8 - 0.2 - - - - - - -
05/11:00am 16.6 NW 16 24 1018.1 - 0.2 - - - - - - -
05/10:30am 16.9 NW 16 22 1018.4 - 0.2 - - - - - - -
05/10:00am 15.8 NW 15 21 1018.5 - 0.0 - - - - - - -
05/09:30am 14.5 NW 12 20 1018.6 - 0.0 - - - - - - -
05/09:00am 13.0 NNW 8 12 1018.5 - 0.0 - - - - - - -
05/08:30am 10.2 NNW 8 10 1018.6 - 0.0 - - - - - - -
05/08:00am 8.5 NNW 7 9 1018.6 - 0.0 - - - - - - -
05/07:30am 8.0 N 7 8 1018.6 - 0.0 - - - - - - -
05/07:00am 9.0 NNW 7 7 1018.6 - 0.0 - - - - - - -
05/06:30am 9.2 NNW 7 7 1018.5 - 0.0 - - - - - - -
05/06:00am 9.6 NNW 8 10 1018.3 - 0.0 - - - - - - -
05/05:30am 9.8 NNW 9 9 1018.3 - 0.0 - - - - - - -
05/05:00am 9.5 NNW 9 9 1018.4 - 0.0 - - - - - - -
05/04:30am 9.7 NNW 8 9 1018.4 - 0.0 - - - - - - -
05/04:00am 9.8 NNW 8 9 1018.6 - 0.0 - - - - - - -
05/03:30am 9.2 NNW 8 9 1018.7 - 0.0 - - - - - - -
05/03:00am 9.4 NNW 8 10 1018.9 - 0.0 - - - - - - -
05/02:30am 9.3 NNW 7 8 1019.2 - 0.0 - - - - - - -
05/02:00am 8.9 NNW 8 9 1019.2 - 0.0 - - - - - - -
05/01:30am 8.5 NNW 7 8 1019.2 - 0.0 - - - - - - -
05/01:00am 8.5 N 6 7 1019.4 - 0.0 - - - - - - -
05/12:30am 8.4 N 6 7 1019.7 - 0.0 - - - - - - -
05/12:00am 8.5 N 6 7 1019.8 - 0.0 - - - - - - -
 
Date/Time
CST
Temp

°C
Wind Pressure Rain
since 9am
mm
Weather Cloud Vis
km
Sea
Height
m
Swell
Dir
 
Speed
knots
Gust
knots
hPa Trend Height
m
Period
s
Dir
04/11:30pm 8.8 NNW 5 7 1020.1 - 0.0 - - - - - - -
04/11:00pm 9.5 NNW 3 4 1020.3 - 0.0 - - - - - - -
04/10:30pm 9.7 NW 3 4 1020.4 - 0.0 - - - - - - -
04/10:00pm 9.8 NNW 4 5 1020.6 - 0.0 - - - - - - -
04/09:30pm 9.6 NNW 5 6 1020.7 - 0.0 - - - - - - -
04/09:00pm 9.8 NNW 6 8 1020.7 - 0.0 - - - - - - -
04/08:30pm 10.1 N 7 9 1020.8 - 0.0 - - - - - - -
04/08:00pm 10.3 N 7 8 1020.9 - 0.0 - - - - - - -
04/07:30pm 10.3 N 6 7 1020.9 - 0.0 - - - - - - -
04/07:00pm 10.5 NNW 6 7 1021.0 - 0.0 - - - - - - -
04/06:30pm 11.2 N 6 7 1020.8 - 0.0 - - - - - - -
04/06:00pm 11.9 NNW 6 7 1021.0 - 0.0 - - - - - - -
04/05:30pm 12.9 NNW 6 7 1020.9 - 0.0 - - - - - - -
04/05:00pm 14.8 NNW 6 7 1020.8 - 0.0 - - - - - - -
04/04:30pm 16.1 NNW 6 8 1020.7 - 0.0 - - - - - - -
04/04:00pm 17.1 NNW 6 8 1020.7 - 0.0 - - - - - - -
04/03:30pm 17.2 NNW 7 10 1020.7 - 0.0 - - - - - - -
04/03:00pm 17.1 NNW 9 12 1020.8 - 0.0 - - - - - - -
04/02:30pm 17.5 NNW 9 13 1020.7 - 0.0 - - - - - - -
04/02:00pm 17.5 NNW 10 13 1021.1 - 0.0 - - - - - - -
04/01:30pm 17.7 NNW 10 16 1021.4 - 0.0 - - - - - - -
04/01:00pm 17.4 NNW 10 15 1021.7 - 0.0 - - - - - - -
04/12:30pm 17.2 NNW 11 15 1022.1 - 0.0 - - - - - - -
04/12:00pm 17.0 NNW 11 15 1022.6 - 0.0 - - - - - - -
04/11:30am 16.6 NNW 11 15 1023.0 - 0.0 - - - - - - -
04/11:00am 16.1 NNW 12 15 1023.4 - 0.0 - - - - - - -
04/10:30am 15.7 NNW 11 14 1023.7 - 0.0 - - - - - - -
04/10:00am 13.3 NNW 8 9 1023.8 - 0.0 - - - - - - -
04/09:30am 11.9 N 7 9 1023.6 - 0.0 - - - - - - -
04/09:00am 10.5 N 6 7 1023.4 - 0.0 - - - - - - -
04/08:30am 9.8 NNW 6 7 1023.3 - 0.0 - - - - - - -
04/08:00am 9.5 N 6 8 1023.2 - 0.0 - - - - - - -
04/07:30am 8.8 N 5 6 1023.1 - 0.0 - - - - - - -
04/07:00am 9.5 NNW 4 5 1023.1 - 0.0 - - - - - - -
04/06:30am 9.6 N 3 4 1022.9 - 0.0 - - - - - - -
04/06:00am 9.7 NNW 4 5 1022.8 - 0.0 - - - - - - -
04/05:30am 9.7 N 4 5 1022.7 - 0.0 - - - - - - -
04/05:00am 10.0 NNW 1 3 1022.8 - 0.0 - - - - - - -
04/04:30am 9.5 N 3 3 1022.9 - 0.0 - - - - - - -
04/04:00am 10.1 N 2 3 1023.0 - 0.0 - - - - - - -
04/03:30am 11.0 N 2 3 1023.0 - 0.0 - - - - - - -
04/03:00am 11.1 NW 5 6 1023.1 - 0.0 - - - - - - -
04/02:30am 10.6 NW 6 7 1023.2 - 0.0 - - - - - - -
04/02:00am 10.1 NNW 7 8 1023.3 - 0.0 - - - - - - -
04/01:30am 10.3 NNW 7 8 1023.5 - 0.0 - - - - - - -
04/01:00am 10.3 NNW 8 9 1023.6 - 0.0 - - - - - - -
04/12:30am 10.1 NNW 8 10 1023.9 - 0.0 - - - - - - -
04/12:00am 10.3 N 8 10 1024.1 - 0.0 - - - - - - -
 
Date/Time
CST
Temp

°C
Wind Pressure Rain
since 9am
mm
Weather Cloud Vis
km
Sea
Height
m
Swell
Dir
 
Speed
knots
Gust
knots
hPa Trend Height
m
Period
s
Dir
03/11:30pm 10.5 N 7 9 1024.5 - 0.0 - - - - - - -
03/11:00pm 10.4 NNW 6 7 1024.7 - 0.0 - - - - - - -
03/10:30pm 10.6 N 4 5 1024.6 - 0.0 - - - - - - -
03/10:00pm 10.7 N 3 4 1024.8 - 0.0 - - - - - - -
03/09:30pm 10.6 N 4 4 1025.1 - 0.0 - - - - - - -
03/09:00pm 10.4 N 3 4 1025.1 - 0.0 - - - - - - -
03/08:30pm 10.7 N 3 4 1025.2 - 0.0 - - - - - - -
03/08:00pm 10.7 N 3 4 1025.4 - 0.0 - - - - - - -
03/07:30pm 10.9 N 3 4 1025.3 - 0.0 - - - - - - -
03/07:00pm 11.2 NNW 4 5 1025.3 - 0.0 - - - - - - -
03/06:30pm 11.4 N 5 6 1025.2 - 0.0 - - - - - - -
03/06:00pm 11.6 N 5 6 1025.4 - 0.0 - - - - - - -
03/05:30pm 11.6 N 5 6 1025.3 - 0.0 - - - - - - -
03/05:00pm 12.1 N 6 8 1025.4 - 0.0 - - - - - - -
03/04:30pm 12.6 NNW 7 10 1025.5 - 0.0 - - - - - - -
03/04:00pm 12.9 N 9 12 1025.4 - 0.0 - - - - - - -
03/03:30pm 13.3 NNW 10 13 1025.5 - 0.0 - - - - - - -
03/03:00pm 14.2 NNW 9 12 1025.6 - 0.0 - - - - - - -
03/02:30pm 13.4 NNW 9 13 1025.7 - 0.0 - - - - - - -
03/02:00pm 13.2 N 8 11 1025.9 - 0.0 - - - - - - -
03/01:30pm 12.9 N 9 12 1026.3 - 0.0 - - - - - - -
03/01:00pm 12.5 N 8 11 1026.7 - 0.0 - - - - - - -
03/12:30pm 12.2 N 8 11 1027.1 - 0.0 - - - - - - -
03/12:00pm 12.3 N 8 11 1027.4 - 0.0 - - - - - - -
03/11:30am 11.9 N 8 10 1027.9 - 0.0 - - - - - - -
03/11:00am 11.6 NNE 8 11 1028.2 - 0.0 - - - - - - -
03/10:30am 11.6 N 9 11 1028.5 - 0.0 - - - - - - -
03/10:00am 11.4 N 7 10 1028.4 - 0.0 - - - - - - -
03/09:30am 10.7 N 5 7 1028.4 - 0.0 - - - - - - -
03/09:00am 9.9 N 5 6 1028.3 - - - - - - - - -
03/08:30am 9.3 N 4 5 1028.3 - - - - - - - - -
03/08:00am 9.0 NNE 4 7 1028.0 - - - - - - - - -
03/07:30am 9.2 N 4 5 1028.1 - - - - - - - - -
03/07:00am 9.4 N 3 5 1028.1 - - - - - - - - -
03/06:30am 10.1 NNE 4 5 1028.3 - - - - - - - - -
03/06:00am 10.0 NNE 3 4 1028.1 - - - - - - - - -
03/05:30am 10.3 N 3 5 1027.8 - - - - - - - - -
03/05:00am 10.4 CALM 0 0 1028.0 - - - - - - - - -
03/04:30am 10.2 CALM 0 1 1028.0 - - - - - - - - -
03/04:00am 10.1 NNE 2 4 1028.3 - - - - - - - - -
03/03:30am 9.7 N 3 5 1029.0 - - - - - - - - -
03/03:00am 9.4 N 3 4 1029.1 - 0.0 - - - - - - -
03/02:30am 8.9 N 5 6 1029.4 - - - - - - - - -
03/02:00am 9.2 NNE 5 6 1029.3 - - - - - - - - -
03/01:30am 9.4 N 3 5 1029.3 - - - - - - - - -
03/01:00am 9.1 N 4 5 1029.2 - - - - - - - - -
03/12:30am 9.5 NNW 3 4 1029.5 - - - - - - - - -
03/12:00am 9.4 NNW 3 4 1030.0 - - - - - - - - -
 
Date/Time
CST
Temp

°C
Wind Pressure Rain
since 9am
mm
Weather Cloud Vis
km
Sea
Height
m
Swell
Dir
 
Speed
knots
Gust
knots
hPa Trend Height
m
Period
s
Dir
02/11:30pm 9.5 NNW 3 3 1030.2 - - - - - - - - -
02/11:00pm 9.1 NW 3 4 1030.4 - - - - - - - - -
02/10:30pm 9.5 NNW 1 2 1030.3 - - - - - - - - -
02/10:00pm 9.8 CALM 0 0 1030.3 - - - - - - - - -
02/09:30pm 9.9 NNW 1 2 1030.4 - - - - - - - - -
02/09:00pm 9.7 NNW 1 1 1030.5 - 0.0 - - - - - - -
02/08:30pm 9.8 NW 1 2 1030.5 - - - - - - - - -
02/08:00pm 10.2 CALM 0 0 1030.2 - - - - - - - - -
02/07:30pm 10.6 CALM 0 0 1030.2 - - - - - - - - -
02/07:00pm 10.5 NNW 2 3 1030.0 - - - - - - - - -
02/06:30pm 11.3 E 4 6 1029.4 - - - - - - - - -
02/06:00pm 11.4 ESE 4 5 1029.3 - - - - - - - - -
02/05:30pm 11.9 ESE 6 8 1029.2 - - - - - - - - -

Other Formats:

Comma delimited format used in spreadsheet applications
http://www.bom.gov.au/fwo/IDS60701/IDS60701.95806.axf

JavaScript Object Notation format (JSON) in row-major order
http://www.bom.gov.au/fwo/IDS60701/IDS60701.95806.json